createdAt,value
2022-07-25T00:03:41.979Z,64.39
2022-07-25T00:07:39.979Z,64.14
2022-07-25T00:11:37.891Z,63.59
2022-07-25T00:15:35.021Z,63.62
2022-07-25T00:19:32.104Z,64.74
2022-07-25T00:23:29.331Z,65.30
2022-07-25T00:27:26.616Z,64.55
2022-07-25T00:31:26.191Z,65.09
2022-07-25T00:35:23.273Z,65.25
2022-07-25T00:39:20.363Z,65.89
2022-07-25T00:43:17.432Z,65.68
2022-07-25T00:47:14.499Z,66.38
2022-07-25T00:51:12.086Z,66.56
2022-07-25T00:55:09.953Z,66.85
2022-07-25T00:59:07.292Z,66.54
2022-07-25T01:03:07.134Z,66.87
2022-07-25T01:07:04.586Z,66.82
2022-07-25T01:11:01.937Z,66.77
2022-07-25T01:14:59.232Z,67.58
2022-07-25T01:18:56.449Z,67.87
2022-07-25T01:22:54.682Z,68.05
2022-07-25T01:26:52.026Z,68.49
2022-07-25T01:30:49.516Z,68.32
2022-07-25T01:34:46.545Z,68.98
2022-07-25T01:38:43.709Z,68.60
2022-07-25T01:42:41.716Z,68.83
2022-07-25T01:46:38.794Z,69.23
2022-07-25T01:50:36.004Z,69.07
2022-07-25T01:54:33.085Z,69.34
2022-07-25T01:58:30.197Z,69.44
2022-07-25T02:02:27.504Z,69.36
2022-07-25T02:06:24.584Z,69.40
2022-07-25T02:10:21.570Z,69.67
2022-07-25T02:14:18.721Z,69.48
2022-07-25T02:18:16.370Z,69.47
2022-07-25T02:22:13.391Z,70.12
2022-07-25T02:26:13.217Z,70.11
2022-07-25T02:30:10.911Z,70.01
2022-07-25T02:34:08.500Z,69.78
2022-07-25T02:38:05.794Z,70.47
2022-07-25T02:42:02.952Z,70.97
2022-07-25T02:46:00.212Z,71.43
2022-07-25T02:49:57.482Z,71.58
2022-07-25T02:53:57.904Z,71.65
2022-07-25T02:57:55.707Z,71.61
2022-07-25T03:01:52.757Z,71.73
2022-07-25T03:05:51.959Z,71.78
2022-07-25T03:09:49.194Z,72.18
2022-07-25T03:13:46.763Z,71.59
2022-07-25T03:17:43.929Z,72.25
2022-07-25T03:21:41.054Z,72.45
2022-07-25T03:25:38.168Z,72.95
2022-07-25T03:29:35.336Z,73.06
2022-07-25T03:33:32.366Z,73.17
2022-07-25T03:37:29.552Z,73.27
2022-07-25T03:41:28.010Z,73.35
2022-07-25T03:45:25.774Z,73.54
2022-07-25T03:49:23.065Z,74.05
2022-07-25T03:53:20.073Z,74.19
2022-07-25T03:57:17.130Z,74.18
2022-07-25T04:01:14.375Z,74.07
2022-07-25T04:05:11.587Z,73.53
2022-07-25T04:09:10.877Z,73.42
2022-07-25T04:13:10.095Z,73.25
2022-07-25T04:17:07.255Z,73.40
2022-07-25T04:21:06.392Z,73.28
2022-07-25T04:25:04.553Z,73.65
2022-07-25T04:29:03.701Z,73.92
2022-07-25T04:33:00.861Z,73.44
2022-07-25T04:36:57.871Z,73.63
2022-07-25T04:40:54.992Z,73.35
2022-07-25T04:44:51.990Z,73.65
2022-07-25T04:48:50.526Z,74.33
2022-07-25T04:52:47.783Z,74.38
2022-07-25T04:56:44.826Z,74.39
2022-07-25T05:00:42.043Z,75.22
2022-07-25T05:04:44.795Z,74.86
2022-07-25T05:08:42.413Z,75.83
2022-07-25T05:12:39.573Z,74.44
2022-07-25T05:16:36.656Z,73.54
2022-07-25T05:20:33.778Z,72.98
2022-07-25T05:24:35.197Z,72.48
2022-07-25T05:28:32.281Z,72.11
2022-07-25T05:32:29.387Z,71.97
2022-07-25T05:36:26.392Z,71.25
2022-07-25T05:40:24.347Z,70.63
2022-07-25T05:44:21.418Z,70.58
2022-07-25T05:48:18.598Z,69.84
2022-07-25T05:52:15.721Z,69.43
2022-07-25T05:56:12.704Z,68.55
2022-07-25T06:00:12.817Z,68.22
2022-07-25T06:04:10.348Z,67.93
2022-07-25T06:08:07.412Z,67.45
2022-07-25T06:12:05.081Z,66.48
2022-07-25T06:16:03.408Z,64.74
2022-07-25T06:20:00.777Z,64.37
2022-07-25T06:23:57.823Z,63.42
2022-07-25T06:27:54.813Z,62.49
2022-07-25T06:31:51.948Z,61.33
2022-07-25T06:35:51.245Z,60.22
2022-07-25T06:39:48.362Z,59.02
2022-07-25T06:43:45.345Z,57.92
2022-07-25T06:47:45.003Z,56.69
2022-07-25T06:51:42.016Z,55.83
2022-07-25T06:55:39.180Z,55.07
2022-07-25T06:59:36.335Z,53.98
2022-07-25T07:03:38.356Z,53.24
2022-07-25T07:07:35.524Z,52.25
2022-07-25T07:11:34.858Z,51.18
2022-07-25T07:15:34.385Z,50.75
2022-07-25T07:19:31.705Z,48.60
2022-07-25T07:23:32.313Z,47.02
2022-07-25T07:27:30.082Z,46.42
2022-07-25T07:31:27.146Z,45.08
2022-07-25T07:35:25.467Z,45.08
2022-07-25T07:39:24.587Z,44.59
2022-07-25T07:43:25.039Z,44.33
2022-07-25T07:47:26.104Z,44.06
2022-07-25T07:51:23.193Z,43.79
2022-07-25T07:55:39.768Z,43.34
2022-07-25T07:59:36.895Z,42.49
2022-07-25T08:03:34.107Z,41.99
2022-07-25T08:07:31.276Z,40.94
2022-07-25T08:11:28.288Z,39.33
2022-07-25T08:15:26.445Z,36.82
2022-07-25T08:19:23.431Z,35.95
2022-07-25T08:23:20.643Z,34.90
2022-07-25T08:27:17.721Z,34.20
2022-07-25T08:31:14.855Z,32.04
2022-07-25T08:35:12.038Z,31.22
2022-07-25T08:39:09.049Z,30.95
2022-07-25T08:43:06.315Z,30.81
2022-07-25T08:47:03.793Z,29.92
2022-07-25T08:51:02.722Z,29.74
2022-07-25T08:54:59.897Z,29.60
2022-07-25T08:58:59.020Z,28.63
2022-07-25T09:03:06.542Z,28.36
2022-07-25T09:07:08.021Z,27.53
2022-07-25T09:11:05.554Z,27.59
2022-07-25T09:15:02.637Z,27.81
2022-07-25T09:19:21.329Z,28.22
2022-07-25T09:23:32.179Z,28.20
2022-07-25T09:27:34.475Z,27.31
2022-07-25T09:31:35.256Z,26.69
2022-07-25T09:35:38.343Z,26.31
2022-07-25T09:39:47.384Z,25.58
2022-07-25T09:43:45.619Z,25.95
2022-07-25T09:47:57.559Z,25.67
2022-07-25T09:51:55.294Z,25.17
2022-07-25T09:55:57.151Z,25.52
2022-07-25T09:59:54.666Z,25.32
2022-07-25T10:04:01.237Z,24.56
2022-07-25T10:07:58.791Z,24.87
2022-07-25T10:12:08.678Z,24.71
2022-07-25T10:16:20.531Z,24.63
2022-07-25T10:20:28.696Z,23.73
2022-07-25T10:24:35.021Z,23.56
2022-07-25T10:28:45.376Z,23.76
2022-07-25T10:33:04.497Z,23.47
2022-07-25T10:37:18.529Z,22.55
2022-07-25T10:41:19.297Z,21.74
2022-07-25T10:45:18.350Z,21.10
2022-07-25T10:49:32.265Z,20.78
2022-07-25T10:53:43.955Z,20.58
2022-07-25T10:57:55.012Z,19.97
2022-07-25T11:01:59.227Z,19.31
2022-07-25T11:05:56.342Z,20.14
2022-07-25T11:10:02.348Z,19.62
2022-07-25T11:13:59.520Z,20.54
2022-07-25T11:17:56.796Z,18.77
2022-07-25T11:21:57.805Z,20.27
2022-07-25T11:26:11.577Z,18.90
2022-07-25T11:30:22.121Z,20.13
2022-07-25T11:34:24.543Z,19.99
2022-07-25T11:38:21.676Z,19.61
2022-07-25T11:42:20.200Z,19.06
2022-07-25T11:46:18.561Z,19.41
2022-07-25T11:50:16.070Z,19.64
2022-07-25T11:54:13.861Z,19.57
2022-07-25T11:58:13.333Z,19.04
2022-07-25T12:02:26.580Z,18.62
2022-07-25T12:06:30.031Z,18.61
2022-07-25T12:10:36.380Z,19.09
2022-07-25T12:14:44.013Z,19.23
2022-07-25T12:18:41.501Z,18.36
2022-07-25T12:22:38.633Z,18.32
2022-07-25T12:26:36.079Z,20.03
2022-07-25T12:30:34.324Z,20.31
2022-07-25T12:34:31.624Z,20.08
2022-07-25T12:38:29.203Z,19.30
2022-07-25T12:42:28.915Z,18.81
2022-07-25T12:46:26.051Z,18.88
2022-07-25T12:50:26.007Z,19.34
2022-07-25T12:54:23.226Z,19.74
2022-07-25T12:58:21.241Z,19.96
2022-07-25T13:02:18.624Z,19.99
2022-07-25T13:06:15.794Z,18.86
2022-07-25T13:10:12.979Z,18.44
2022-07-25T13:14:10.117Z,17.89
2022-07-25T13:18:07.482Z,17.84
2022-07-25T13:22:04.508Z,17.82
2022-07-25T13:26:01.729Z,18.23
2022-07-25T13:29:58.736Z,18.30
2022-07-25T13:33:55.795Z,19.52
2022-07-25T13:37:52.850Z,18.19
2022-07-25T13:41:50.315Z,18.77
2022-07-25T13:45:47.425Z,19.38
2022-07-25T13:49:44.532Z,18.83
2022-07-25T13:53:42.596Z,17.21
2022-07-25T13:57:39.713Z,16.91
2022-07-25T14:01:36.895Z,16.06
2022-07-25T14:05:34.745Z,16.23
2022-07-25T14:09:31.693Z,16.50
2022-07-25T14:13:28.656Z,16.75
2022-07-25T14:17:29.947Z,18.44
2022-07-25T14:21:27.375Z,18.62
2022-07-25T14:25:24.475Z,17.65
2022-07-25T14:29:25.947Z,17.50
2022-07-25T14:33:28.023Z,18.04
2022-07-25T14:37:25.276Z,18.96
2022-07-25T14:41:22.619Z,18.50
2022-07-25T14:45:21.968Z,18.55
2022-07-25T14:49:19.375Z,18.83
2022-07-25T14:53:16.503Z,18.84
2022-07-25T14:57:13.664Z,18.32
2022-07-25T15:01:11.500Z,18.34
2022-07-25T15:05:09.064Z,17.03
2022-07-25T15:09:06.801Z,15.82
2022-07-25T15:13:28.676Z,15.90
2022-07-25T15:17:21.124Z,16.01
2022-07-25T15:21:18.234Z,16.55
2022-07-25T15:25:59.628Z,17.59
2022-07-25T15:29:32.215Z,17.25
2022-07-25T15:33:29.452Z,16.92
2022-07-25T15:37:28.134Z,16.90
2022-07-25T15:41:25.199Z,15.74
2022-07-25T15:45:38.025Z,16.31
2022-07-25T15:49:36.991Z,16.86
2022-07-25T15:53:34.045Z,16.60
2022-07-25T15:57:31.332Z,17.06
2022-07-25T16:01:28.384Z,17.73
2022-07-25T16:05:26.305Z,18.12
2022-07-25T16:09:23.880Z,18.45
2022-07-25T16:13:20.948Z,19.20
2022-07-25T16:17:18.403Z,20.32
2022-07-25T16:21:15.401Z,21.56
2022-07-25T16:25:12.678Z,22.45
2022-07-25T16:29:10.415Z,23.79
2022-07-25T16:33:09.274Z,24.11
2022-07-25T16:37:06.334Z,25.13
2022-07-25T16:41:03.476Z,25.74
2022-07-25T16:45:00.477Z,26.11
2022-07-25T16:48:57.607Z,26.74
2022-07-25T16:52:54.947Z,27.26
2022-07-25T16:56:54.820Z,27.81
2022-07-25T17:00:53.589Z,28.01
2022-07-25T17:04:50.598Z,27.91
2022-07-25T17:08:47.652Z,28.34
2022-07-25T17:12:44.621Z,28.98
2022-07-25T17:16:42.001Z,29.02
2022-07-25T17:20:39.019Z,29.46
2022-07-25T17:24:36.918Z,31.99
2022-07-25T17:28:34.988Z,32.29
2022-07-25T17:32:32.058Z,33.38
2022-07-25T17:36:29.174Z,33.47
2022-07-25T17:40:26.492Z,32.33
2022-07-25T17:44:23.418Z,31.83
2022-07-25T17:48:20.447Z,33.32
2022-07-25T17:52:17.997Z,37.13
2022-07-25T17:56:15.081Z,38.04
2022-07-25T18:00:13.736Z,37.36
2022-07-25T18:04:11.357Z,36.78
2022-07-25T18:08:10.464Z,35.79
2022-07-25T18:12:07.767Z,36.43
2022-07-25T18:16:05.347Z,39.89
2022-07-25T18:20:03.913Z,38.74
2022-07-25T18:24:01.007Z,38.69
2022-07-25T18:27:58.041Z,38.38
2022-07-25T18:31:55.013Z,38.40
2022-07-25T18:35:52.189Z,38.14
2022-07-25T18:39:49.178Z,38.40
2022-07-25T18:43:46.636Z,38.35
2022-07-25T18:47:45.227Z,38.06
2022-07-25T18:51:42.297Z,38.53
2022-07-25T18:55:39.417Z,39.12
2022-07-25T18:59:36.605Z,39.58
2022-07-25T19:03:34.954Z,40.41
2022-07-25T19:07:33.629Z,40.47
2022-07-25T19:11:30.733Z,40.51
2022-07-25T19:15:28.566Z,40.66
2022-07-25T19:19:27.010Z,40.67
2022-07-25T19:23:24.260Z,40.91
2022-07-25T19:27:23.899Z,40.54
2022-07-25T19:31:21.096Z,40.95
2022-07-25T19:35:25.847Z,41.16
2022-07-25T19:39:24.604Z,41.46
2022-07-25T19:43:21.744Z,41.84
2022-07-25T19:47:18.827Z,41.73
2022-07-25T19:51:15.847Z,41.21
2022-07-25T19:55:12.944Z,41.28
2022-07-25T19:59:10.187Z,41.22
2022-07-25T20:03:07.300Z,42.28
2022-07-25T20:07:04.537Z,44.53
2022-07-25T20:11:01.587Z,45.48
2022-07-25T20:14:58.602Z,45.16
2022-07-25T20:18:55.777Z,45.24
2022-07-25T20:22:53.364Z,45.08
2022-07-25T20:26:50.521Z,44.74
2022-07-25T20:30:47.617Z,44.70
2022-07-25T20:34:45.431Z,47.60
2022-07-25T20:38:42.453Z,50.63
2022-07-25T20:42:40.991Z,54.71
2022-07-25T20:46:39.115Z,56.56
2022-07-25T20:50:37.670Z,57.69
2022-07-25T20:54:36.770Z,58.95
2022-07-25T20:58:33.928Z,59.78
2022-07-25T21:02:30.957Z,60.19
2022-07-25T21:06:29.236Z,60.33
2022-07-25T21:10:28.335Z,59.34
2022-07-25T21:14:26.827Z,59.50
2022-07-25T21:18:23.827Z,59.29
2022-07-25T21:22:20.986Z,60.36
2022-07-25T21:26:18.831Z,61.10
2022-07-25T21:30:15.955Z,60.96
2022-07-25T21:34:12.962Z,61.06
2022-07-25T21:38:10.031Z,60.55
2022-07-25T21:42:09.973Z,55.44
2022-07-25T21:46:07.125Z,49.71
2022-07-25T21:50:24.826Z,48.11
2022-07-25T21:54:22.176Z,47.49
2022-07-25T21:58:21.607Z,47.05
2022-07-25T22:02:20.067Z,46.59
2022-07-25T22:06:17.134Z,47.75
2022-07-25T22:10:16.786Z,47.72
2022-07-25T22:14:15.664Z,47.60
2022-07-25T22:18:12.717Z,48.32
2022-07-25T22:22:09.836Z,48.92
2022-07-25T22:26:06.824Z,49.64
2022-07-25T22:30:05.733Z,49.97
2022-07-25T22:34:02.878Z,51.05
2022-07-25T22:37:59.921Z,51.27
2022-07-25T22:41:57.029Z,51.88
2022-07-25T22:45:54.069Z,52.17
2022-07-25T22:49:51.172Z,52.37
2022-07-25T22:53:48.220Z,52.89
2022-07-25T22:57:45.202Z,53.64
2022-07-25T23:01:42.279Z,54.02
2022-07-25T23:05:40.704Z,54.14
2022-07-25T23:09:37.926Z,53.93
2022-07-25T23:13:36.471Z,54.15
2022-07-25T23:17:33.615Z,53.79
2022-07-25T23:21:30.688Z,53.55
2022-07-25T23:25:27.759Z,53.43
2022-07-25T23:29:24.845Z,53.57
2022-07-25T23:33:25.998Z,54.47
2022-07-25T23:37:23.111Z,54.52
2022-07-25T23:41:20.379Z,54.40
2022-07-25T23:45:17.396Z,55.24
2022-07-25T23:49:16.127Z,54.97
2022-07-25T23:53:13.287Z,54.83
2022-07-25T23:57:10.757Z,55.07
